createdAt,value
2023-03-02T00:04:33.814Z,4.23
2023-03-02T00:09:36.521Z,4.13
2023-03-02T00:14:38.471Z,3.94
2023-03-02T00:19:40.140Z,4.05
2023-03-02T00:24:41.593Z,3.95
2023-03-02T00:29:43.103Z,3.81
2023-03-02T00:34:45.279Z,3.93
2023-03-02T00:39:46.851Z,3.81
2023-03-02T00:44:48.522Z,3.81
2023-03-02T00:49:50.035Z,3.73
2023-03-02T00:54:51.639Z,3.76
2023-03-02T00:59:53.346Z,3.69
2023-03-02T01:04:54.999Z,3.79
2023-03-02T01:09:56.790Z,3.81
2023-03-02T01:14:58.797Z,3.62
2023-03-02T01:20:00.227Z,3.50
2023-03-02T01:25:01.828Z,3.44
2023-03-02T01:30:03.908Z,3.48
2023-03-02T01:35:06.133Z,3.46
2023-03-02T01:46:26.433Z,3.50
2023-03-02T01:51:33.514Z,3.38
2023-03-02T01:56:39.822Z,3.28
2023-03-02T02:01:45.050Z,3.21
2023-03-02T02:06:52.475Z,3.21
2023-03-02T02:11:53.938Z,3.17
2023-03-02T02:16:55.443Z,3.12
2023-03-02T02:21:56.956Z,3.09
2023-03-02T02:26:58.559Z,3.15
2023-03-02T02:32:17.896Z,3.23
2023-03-02T02:37:24.020Z,3.27
2023-03-02T02:42:30.327Z,3.07
2023-03-02T02:47:32.226Z,3.11
2023-03-02T02:52:33.901Z,3.00
2023-03-02T02:57:35.420Z,3.13
2023-03-02T03:02:44.292Z,3.18
2023-03-02T03:07:45.758Z,3.15
2023-03-02T03:12:47.554Z,3.11
2023-03-02T03:17:59.105Z,3.13
2023-03-02T03:23:00.818Z,3.06
2023-03-02T03:28:03.939Z,3.11
2023-03-02T03:33:05.585Z,3.14
2023-03-02T03:38:07.526Z,3.11
2023-03-02T03:43:09.715Z,2.98
2023-03-02T03:48:11.396Z,2.99
2023-03-02T03:53:12.791Z,3.08
2023-03-02T03:58:14.453Z,3.05
2023-03-02T04:03:16.746Z,3.03
2023-03-02T04:08:19.736Z,3.05
2023-03-02T04:13:21.121Z,2.94
2023-03-02T04:18:22.503Z,2.91
2023-03-02T04:23:23.915Z,2.98
2023-03-02T04:28:25.388Z,2.88
2023-03-02T04:33:26.781Z,2.88
2023-03-02T04:38:29.541Z,2.91
2023-03-02T04:43:34.553Z,2.89
2023-03-02T04:48:35.892Z,2.95
2023-03-02T04:53:37.253Z,2.77
2023-03-02T04:58:38.763Z,2.91
2023-03-02T05:03:40.501Z,2.89
2023-03-02T05:08:42.336Z,2.89
2023-03-02T05:13:44.108Z,2.89
2023-03-02T05:18:46.298Z,2.92
2023-03-02T05:23:47.951Z,2.92
2023-03-02T05:28:49.866Z,2.92
2023-03-02T05:33:51.553Z,2.89
2023-03-02T05:38:53.601Z,2.88
2023-03-02T05:43:55.340Z,2.86
2023-03-02T05:48:56.870Z,2.80
2023-03-02T05:53:58.485Z,2.72
2023-03-02T05:58:59.911Z,2.79
2023-03-02T06:04:01.386Z,2.79
2023-03-02T06:09:03.260Z,2.77
2023-03-02T06:14:05.018Z,2.74
2023-03-02T06:19:06.747Z,2.63
2023-03-02T06:24:08.343Z,2.66
2023-03-02T06:29:09.812Z,2.70
2023-03-02T06:34:11.445Z,2.74
2023-03-02T06:39:17.228Z,2.62
2023-03-02T06:44:18.864Z,2.86
2023-03-02T06:49:20.539Z,2.94
2023-03-02T06:54:24.069Z,3.09
2023-03-02T06:59:25.768Z,3.23
2023-03-02T07:04:31.062Z,3.30
2023-03-02T07:09:34.314Z,3.44
2023-03-02T07:14:37.510Z,3.60
2023-03-02T07:19:40.879Z,3.71
2023-03-02T07:24:44.670Z,3.78
2023-03-02T07:29:46.402Z,4.09
2023-03-02T07:34:48.153Z,4.27
2023-03-02T07:39:49.956Z,4.34
2023-03-02T07:44:54.947Z,4.62
2023-03-02T07:49:56.439Z,4.82
2023-03-02T07:54:58.071Z,4.93
2023-03-02T08:00:00.675Z,5.09
2023-03-02T08:05:02.139Z,5.31
2023-03-02T08:10:04.815Z,5.46
2023-03-02T08:15:06.687Z,5.60
2023-03-02T08:20:09.939Z,5.82
2023-03-02T08:25:11.659Z,5.90
2023-03-02T08:30:13.879Z,6.08
2023-03-02T08:35:15.409Z,6.35
2023-03-02T08:40:16.940Z,6.43
2023-03-02T08:45:21.038Z,6.59
2023-03-02T08:50:22.510Z,6.89
2023-03-02T08:55:24.056Z,7.08
2023-03-02T09:00:25.563Z,7.33
2023-03-02T09:05:28.182Z,7.71
2023-03-02T09:10:29.637Z,8.01
2023-03-02T09:15:31.609Z,8.25
2023-03-02T09:20:34.537Z,8.52
2023-03-02T09:25:36.033Z,8.71
2023-03-02T09:30:37.841Z,9.09
2023-03-02T09:35:39.748Z,9.35
2023-03-02T09:40:56.813Z,9.81
2023-03-02T09:46:34.466Z,10.14
2023-03-02T09:51:42.318Z,10.57
2023-03-02T09:56:48.388Z,10.96
2023-03-02T10:02:18.026Z,11.52
2023-03-02T10:07:31.565Z,12.32
2023-03-02T10:12:53.919Z,13.33
2023-03-02T10:18:08.980Z,16.11
2023-03-02T10:23:33.245Z,17.88
2023-03-02T10:28:41.691Z,18.92
2023-03-02T10:33:44.507Z,17.65
2023-03-02T10:38:46.608Z,17.03
2023-03-02T10:43:52.455Z,17.49
2023-03-02T10:49:01.507Z,19.05
2023-03-02T10:54:05.436Z,21.88
2023-03-02T10:59:44.665Z,23.87
2023-03-02T11:04:46.277Z,24.43
2023-03-02T11:10:18.102Z,25.00
2023-03-02T11:15:52.675Z,26.52
2023-03-02T11:21:03.326Z,27.22
2023-03-02T11:26:32.758Z,28.04
2023-03-02T11:31:43.512Z,28.80
2023-03-02T11:37:03.497Z,29.53
2023-03-02T11:42:05.432Z,29.33
2023-03-02T11:47:12.344Z,29.91
2023-03-02T11:52:30.118Z,30.77
2023-03-02T11:57:38.623Z,31.09
2023-03-02T12:02:40.992Z,31.88
2023-03-02T12:07:44.259Z,32.50
2023-03-02T12:13:02.475Z,32.38
2023-03-02T12:18:21.148Z,33.03
2023-03-02T12:23:24.917Z,33.51
2023-03-02T12:28:33.130Z,33.65
2023-03-02T12:33:49.335Z,34.02
2023-03-02T12:39:09.609Z,33.80
2023-03-02T12:44:28.318Z,33.88
2023-03-02T12:49:41.793Z,34.67
2023-03-02T12:54:43.239Z,34.79
2023-03-02T12:59:55.824Z,35.29
2023-03-02T13:05:03.505Z,35.44
2023-03-02T13:10:20.102Z,35.32
2023-03-02T13:15:21.735Z,35.51
2023-03-02T13:20:26.808Z,35.75
2023-03-02T13:25:31.987Z,35.72
2023-03-02T13:30:37.113Z,36.11
2023-03-02T13:35:39.317Z,35.15
2023-03-02T13:40:46.932Z,35.27
2023-03-02T13:46:11.178Z,35.20
2023-03-02T13:51:16.489Z,34.43
2023-03-02T13:56:18.996Z,35.21
2023-03-02T14:01:20.531Z,35.71
2023-03-02T14:06:22.524Z,35.01
2023-03-02T14:11:24.272Z,35.22
2023-03-02T14:16:27.121Z,35.41
2023-03-02T14:21:29.086Z,34.77
2023-03-02T14:26:40.692Z,34.94
2023-03-02T14:31:42.151Z,35.34
2023-03-02T14:36:46.090Z,34.49
2023-03-02T14:41:53.855Z,34.53
2023-03-02T14:46:57.583Z,33.11
2023-03-02T14:52:05.855Z,32.35
2023-03-02T14:57:21.132Z,31.46
2023-03-02T15:02:26.959Z,28.69
2023-03-02T15:07:29.959Z,26.55
2023-03-02T15:12:31.480Z,24.31
2023-03-02T15:17:34.271Z,22.49
2023-03-02T15:22:35.938Z,21.04
2023-03-02T15:27:37.624Z,19.95
2023-03-02T15:32:39.173Z,19.51
2023-03-02T15:37:40.957Z,19.08
2023-03-02T15:42:42.434Z,18.53
2023-03-02T15:47:44.026Z,17.96
2023-03-02T15:52:45.466Z,17.49
2023-03-02T15:57:46.859Z,17.13
2023-03-02T16:02:49.729Z,16.96
2023-03-02T16:07:51.260Z,16.46
2023-03-02T16:12:52.757Z,16.24
2023-03-02T16:17:54.418Z,15.94
2023-03-02T16:22:55.824Z,15.73
2023-03-02T16:27:57.264Z,15.43
2023-03-02T16:33:02.602Z,15.27
2023-03-02T16:38:05.094Z,14.96
2023-03-02T16:43:09.025Z,14.76
2023-03-02T16:48:12.083Z,14.43
2023-03-02T16:53:15.382Z,14.28
2023-03-02T16:58:17.531Z,14.07
2023-03-02T17:03:18.919Z,13.85
2023-03-02T17:08:20.555Z,13.65
2023-03-02T17:13:22.362Z,13.48
2023-03-02T17:18:24.353Z,13.31
2023-03-02T17:23:27.331Z,13.05
2023-03-02T17:28:29.054Z,12.86
2023-03-02T17:33:30.648Z,12.62
2023-03-02T17:38:32.146Z,12.50
2023-03-02T17:43:35.386Z,12.13
2023-03-02T17:48:36.992Z,12.23
2023-03-02T17:53:38.663Z,12.13
2023-03-02T17:58:45.118Z,12.02
2023-03-02T18:03:47.300Z,11.84
2023-03-02T18:08:51.385Z,11.73
2023-03-02T18:13:58.173Z,11.63
2023-03-02T18:18:59.918Z,11.53
2023-03-02T18:24:03.540Z,11.50
2023-03-02T18:29:07.348Z,11.39
2023-03-02T18:39:30.265Z,11.18
2023-03-02T18:44:32.807Z,11.02
2023-03-02T18:49:34.381Z,10.85
2023-03-02T18:54:35.911Z,10.85
2023-03-02T18:59:37.891Z,10.59
2023-03-02T19:04:40.203Z,10.64
2023-03-02T19:09:42.417Z,10.49
2023-03-02T19:14:43.986Z,10.24
2023-03-02T19:19:45.554Z,10.08
2023-03-02T19:24:47.538Z,10.11
2023-03-02T19:29:48.935Z,9.96
2023-03-02T19:34:50.368Z,9.76
2023-03-02T19:39:52.230Z,9.68
2023-03-02T19:44:54.250Z,9.61
2023-03-02T19:49:56.210Z,9.47
2023-03-02T19:54:57.758Z,9.44
2023-03-02T19:59:59.432Z,9.31
2023-03-02T20:05:00.842Z,9.24
2023-03-02T20:10:02.721Z,9.21
2023-03-02T20:15:05.944Z,9.01
2023-03-02T20:20:07.994Z,8.84
2023-03-02T20:25:09.716Z,8.95
2023-03-02T20:30:15.371Z,8.80
2023-03-02T20:35:16.963Z,8.72
2023-03-02T20:40:18.861Z,8.74
2023-03-02T20:45:21.097Z,8.71
2023-03-02T20:50:26.825Z,8.62
2023-03-02T20:55:29.020Z,8.49
2023-03-02T21:00:31.826Z,8.45
2023-03-02T21:05:35.067Z,8.06
2023-03-02T21:10:38.585Z,8.33
2023-03-02T21:15:41.088Z,8.23
2023-03-02T21:20:42.653Z,8.14
2023-03-02T21:25:45.037Z,8.16
2023-03-02T21:30:46.555Z,8.04
2023-03-02T21:35:48.319Z,7.99
2023-03-02T21:40:49.756Z,8.00
2023-03-02T21:45:51.407Z,7.95
2023-03-02T21:50:54.178Z,7.85
2023-03-02T21:55:55.725Z,7.74
2023-03-02T22:00:57.155Z,7.65
2023-03-02T22:05:58.822Z,7.62
2023-03-02T22:11:00.272Z,7.52
2023-03-02T22:16:12.721Z,7.48
2023-03-02T22:21:31.256Z,7.42
2023-03-02T22:26:35.390Z,7.35
2023-03-02T22:31:42.852Z,7.29
2023-03-02T22:36:44.873Z,7.24
2023-03-02T22:41:47.118Z,7.16
2023-03-02T22:46:49.191Z,7.13
2023-03-02T22:51:51.069Z,7.02
2023-03-02T22:56:53.306Z,7.07
2023-03-02T23:02:01.494Z,6.97
2023-03-02T23:07:13.382Z,6.89
2023-03-02T23:12:19.330Z,6.56
2023-03-02T23:17:21.911Z,6.66
2023-03-02T23:22:28.571Z,6.61
2023-03-02T23:27:30.428Z,6.62
2023-03-02T23:32:32.038Z,6.49
2023-03-02T23:37:33.503Z,6.44
2023-03-02T23:42:34.927Z,6.36
2023-03-02T23:47:37.039Z,6.18
2023-03-02T23:52:39.740Z,6.24
2023-03-02T23:57:41.232Z,6.02
